createdAt,value
2018-03-15T00:01:25.947Z,6.97
2018-03-15T00:03:53.608Z,6.91
2018-03-15T00:06:21.220Z,6.92
2018-03-15T00:08:48.793Z,6.90
2018-03-15T00:11:16.590Z,6.90
2018-03-15T00:13:44.217Z,6.90
2018-03-15T00:16:11.777Z,6.85
2018-03-15T00:18:39.349Z,6.92
2018-03-15T00:21:07.031Z,6.92
2018-03-15T00:23:34.699Z,6.80
2018-03-15T00:26:02.257Z,6.78
2018-03-15T00:28:30.024Z,6.68
2018-03-15T00:30:57.606Z,6.67
2018-03-15T00:33:25.352Z,6.70
2018-03-15T00:35:52.975Z,6.76
2018-03-15T00:38:20.571Z,6.80
2018-03-15T00:40:48.329Z,6.86
2018-03-15T00:43:16.172Z,6.82
2018-03-15T00:45:43.749Z,6.92
2018-03-15T00:48:11.532Z,6.99
2018-03-15T00:50:39.385Z,6.98
2018-03-15T00:53:07.110Z,6.97
2018-03-15T00:55:34.786Z,7.05
2018-03-15T00:58:02.405Z,7.01
2018-03-15T01:00:30.002Z,6.92
2018-03-15T01:02:57.587Z,6.90
2018-03-15T01:05:25.202Z,6.90
2018-03-15T01:07:52.828Z,6.98
2018-03-15T01:10:20.492Z,7.00
2018-03-15T01:12:48.154Z,7.07
2018-03-15T01:15:15.729Z,7.00
2018-03-15T01:17:43.380Z,7.08
2018-03-15T01:20:10.994Z,7.04
2018-03-15T01:22:38.639Z,7.09
2018-03-15T01:25:06.215Z,6.88
2018-03-15T01:27:33.832Z,6.86
2018-03-15T01:30:01.576Z,6.85
2018-03-15T01:32:29.160Z,6.77
2018-03-15T01:34:56.752Z,6.71
2018-03-15T01:37:24.402Z,6.68
2018-03-15T01:39:51.975Z,6.55
2018-03-15T01:42:19.672Z,6.51
2018-03-15T01:44:47.239Z,6.38
2018-03-15T01:47:15.004Z,6.49
2018-03-15T01:49:42.624Z,6.50
2018-03-15T01:52:10.204Z,6.50
2018-03-15T01:54:37.792Z,6.53
2018-03-15T01:57:05.449Z,6.54
2018-03-15T01:59:33.124Z,6.60
2018-03-15T02:02:00.953Z,6.51
2018-03-15T02:04:28.638Z,6.51
2018-03-15T02:06:56.314Z,6.44
2018-03-15T02:09:24.030Z,6.43
2018-03-15T02:11:51.840Z,6.44
2018-03-15T02:14:19.420Z,6.60
2018-03-15T02:16:46.984Z,6.61
2018-03-15T02:19:14.815Z,6.57
2018-03-15T02:21:42.479Z,6.49
2018-03-15T02:24:10.150Z,6.52
2018-03-15T02:26:37.814Z,6.57
2018-03-15T02:29:05.386Z,6.65
2018-03-15T02:31:33.133Z,6.72
2018-03-15T02:34:00.744Z,6.74
2018-03-15T02:36:28.324Z,6.86
2018-03-15T02:38:55.906Z,6.91
2018-03-15T02:41:23.518Z,6.98
2018-03-15T02:43:51.251Z,6.95
2018-03-15T02:46:18.892Z,6.91
2018-03-15T02:48:46.500Z,6.87
2018-03-15T02:51:14.224Z,6.89
2018-03-15T02:53:41.879Z,6.89
2018-03-15T02:56:09.486Z,6.97
2018-03-15T02:58:37.211Z,7.11
2018-03-15T03:01:04.792Z,7.20
2018-03-15T03:03:32.545Z,7.34
2018-03-15T03:06:00.115Z,7.34
2018-03-15T03:08:27.858Z,7.43
2018-03-15T03:10:55.478Z,7.43
2018-03-15T03:13:23.198Z,7.35
2018-03-15T03:15:50.845Z,7.23
2018-03-15T03:18:18.462Z,7.13
2018-03-15T03:20:46.036Z,6.89
2018-03-15T03:23:13.609Z,6.89
2018-03-15T03:25:41.225Z,6.85
2018-03-15T03:28:08.797Z,6.83
2018-03-15T03:30:36.393Z,6.75
2018-03-15T03:33:04.014Z,6.90
2018-03-15T03:35:31.589Z,6.82
2018-03-15T03:37:59.173Z,6.81
2018-03-15T03:40:26.855Z,6.78
2018-03-15T03:42:54.436Z,6.84
2018-03-15T03:45:22.175Z,6.76
2018-03-15T03:47:49.841Z,6.76
2018-03-15T03:50:17.409Z,6.71
2018-03-15T03:52:44.976Z,6.78
2018-03-15T03:55:12.592Z,6.67
2018-03-15T03:57:40.172Z,6.62
2018-03-15T04:00:07.972Z,6.63
2018-03-15T04:02:35.569Z,6.58
2018-03-15T04:05:03.278Z,6.51
2018-03-15T04:07:30.888Z,6.53
2018-03-15T04:09:58.501Z,6.46
2018-03-15T04:12:26.071Z,6.34
2018-03-15T04:14:53.636Z,6.30
2018-03-15T04:17:21.386Z,6.28
2018-03-15T04:19:48.961Z,6.18
2018-03-15T04:22:16.529Z,6.17
2018-03-15T04:24:44.131Z,6.23
2018-03-15T04:27:11.708Z,6.22
2018-03-15T04:29:39.288Z,6.22
2018-03-15T04:32:06.907Z,6.10
2018-03-15T04:34:34.617Z,6.04
2018-03-15T04:37:02.270Z,5.94
2018-03-15T04:39:30.141Z,5.95
2018-03-15T04:41:57.716Z,5.97
2018-03-15T04:44:25.471Z,5.91
2018-03-15T04:46:53.133Z,6.01
2018-03-15T04:49:20.798Z,6.04
2018-03-15T04:51:48.364Z,6.33
2018-03-15T04:54:16.328Z,7.13
2018-03-15T04:56:43.972Z,7.91
2018-03-15T04:59:11.633Z,8.80
2018-03-15T05:01:39.236Z,9.44
2018-03-15T05:04:06.815Z,10.16
2018-03-15T05:06:34.388Z,10.54
2018-03-15T05:09:02.012Z,10.31
2018-03-15T05:11:29.745Z,10.07
2018-03-15T05:13:57.314Z,10.15
2018-03-15T05:16:24.933Z,10.18
2018-03-15T05:18:52.499Z,9.99
2018-03-15T05:21:20.080Z,9.62
2018-03-15T05:23:47.698Z,9.27
2018-03-15T05:26:15.267Z,9.07
2018-03-15T05:28:42.874Z,8.97
2018-03-15T05:31:10.529Z,8.83
2018-03-15T05:33:38.197Z,8.71
2018-03-15T05:36:05.772Z,8.70
2018-03-15T05:38:33.389Z,8.77
2018-03-15T05:41:01.189Z,8.71
2018-03-15T05:43:28.853Z,8.78
2018-03-15T05:45:56.603Z,9.01
2018-03-15T05:48:24.195Z,9.21
2018-03-15T05:50:51.840Z,9.35
2018-03-15T05:53:19.432Z,9.47
2018-03-15T05:55:47.165Z,9.56
2018-03-15T05:58:14.826Z,9.73
2018-03-15T06:00:42.535Z,10.05
2018-03-15T06:03:10.154Z,10.47
2018-03-15T06:05:37.828Z,10.94
2018-03-15T06:08:05.415Z,11.70
2018-03-15T06:10:33.357Z,13.17
2018-03-15T06:13:00.942Z,14.72
2018-03-15T06:15:28.670Z,16.26
2018-03-15T06:17:56.332Z,17.36
2018-03-15T06:20:24.005Z,18.12
2018-03-15T06:22:51.713Z,19.12
2018-03-15T06:25:19.534Z,19.35
2018-03-15T06:27:47.198Z,19.83
2018-03-15T06:30:14.926Z,20.31
2018-03-15T06:32:42.893Z,20.52
2018-03-15T06:35:10.582Z,20.45
2018-03-15T06:37:38.200Z,19.73
2018-03-15T06:40:05.904Z,19.14
2018-03-15T06:42:33.710Z,18.32
2018-03-15T06:45:01.555Z,18.02
2018-03-15T06:47:29.432Z,18.05
2018-03-15T06:49:57.389Z,17.45
2018-03-15T06:52:24.998Z,17.72
2018-03-15T06:54:52.720Z,17.72
2018-03-15T06:57:20.309Z,17.62
2018-03-15T06:59:48.007Z,18.93
2018-03-15T07:02:15.918Z,20.12
2018-03-15T07:04:43.501Z,21.07
2018-03-15T07:07:12.248Z,22.51
2018-03-15T07:09:39.912Z,22.21
2018-03-15T07:12:07.564Z,22.46
2018-03-15T07:14:35.159Z,23.07
2018-03-15T07:17:02.890Z,23.38
2018-03-15T07:19:30.551Z,24.06
2018-03-15T07:21:58.214Z,24.34
2018-03-15T07:24:25.951Z,25.21
2018-03-15T07:26:53.741Z,24.14
2018-03-15T07:29:21.466Z,24.20
2018-03-15T07:31:49.039Z,24.80
2018-03-15T07:34:16.617Z,24.91
2018-03-15T07:36:44.390Z,24.88
2018-03-15T07:39:12.054Z,24.46
2018-03-15T07:41:39.628Z,24.84
2018-03-15T07:44:07.236Z,25.27
2018-03-15T07:46:34.822Z,25.93
2018-03-15T07:49:02.498Z,24.81
2018-03-15T07:51:30.162Z,23.81
2018-03-15T07:53:57.735Z,23.51
2018-03-15T07:56:25.495Z,23.92
2018-03-15T07:58:53.802Z,22.65
2018-03-15T08:01:21.381Z,23.44
2018-03-15T08:03:48.943Z,23.57
2018-03-15T08:06:16.740Z,23.31
2018-03-15T08:08:44.326Z,22.71
2018-03-15T08:11:11.900Z,23.57
2018-03-15T08:13:39.591Z,23.86
2018-03-15T08:16:07.174Z,24.82
2018-03-15T08:18:35.070Z,24.76
2018-03-15T08:21:02.683Z,25.00
2018-03-15T08:23:30.292Z,25.26
2018-03-15T08:25:58.054Z,23.81
2018-03-15T08:28:25.720Z,24.29
2018-03-15T08:30:53.302Z,24.70
2018-03-15T08:33:20.954Z,24.56
2018-03-15T08:35:48.738Z,24.53
2018-03-15T08:38:16.306Z,24.41
2018-03-15T08:40:44.032Z,23.70
2018-03-15T08:43:11.640Z,24.24
2018-03-15T08:45:39.228Z,24.23
2018-03-15T08:48:06.813Z,24.15
2018-03-15T08:50:34.416Z,24.43
2018-03-15T08:53:01.986Z,23.01
2018-03-15T08:55:29.597Z,22.52
2018-03-15T08:57:57.213Z,23.49
2018-03-15T09:00:24.795Z,23.64
2018-03-15T09:02:52.382Z,23.37
2018-03-15T09:05:20.232Z,23.24
2018-03-15T09:07:47.703Z,22.09
2018-03-15T09:10:15.359Z,22.27
2018-03-15T09:12:42.966Z,22.85
2018-03-15T09:15:10.690Z,23.46
2018-03-15T09:17:38.351Z,23.69
2018-03-15T09:20:05.975Z,22.60
2018-03-15T09:22:33.551Z,22.43
2018-03-15T09:25:01.387Z,22.64
2018-03-15T09:27:29.207Z,22.99
2018-03-15T09:29:56.801Z,23.14
2018-03-15T09:32:24.419Z,23.43
2018-03-15T09:34:52.076Z,24.30
2018-03-15T09:37:19.687Z,24.62
2018-03-15T09:39:47.291Z,24.57
2018-03-15T09:42:14.928Z,24.94
2018-03-15T09:44:42.518Z,25.11
2018-03-15T09:47:10.111Z,25.34
2018-03-15T09:49:37.800Z,25.13
2018-03-15T09:52:05.414Z,25.40
2018-03-15T09:54:33.002Z,24.63
2018-03-15T09:57:00.662Z,23.28
2018-03-15T09:59:28.238Z,23.88
2018-03-15T10:01:55.863Z,24.97
2018-03-15T10:04:23.479Z,25.41
2018-03-15T10:06:51.079Z,25.90
2018-03-15T10:09:18.683Z,25.07
2018-03-15T10:11:46.283Z,24.19
2018-03-15T10:14:13.997Z,23.67
2018-03-15T10:16:41.608Z,25.32
2018-03-15T10:19:09.258Z,25.79
2018-03-15T10:21:36.877Z,26.02
2018-03-15T10:24:04.538Z,25.40
2018-03-15T10:26:32.181Z,24.24
2018-03-15T10:28:59.787Z,22.34
2018-03-15T10:31:27.364Z,22.12
2018-03-15T10:33:55.065Z,22.94
2018-03-15T10:36:22.697Z,24.27
2018-03-15T10:38:50.298Z,23.96
2018-03-15T10:41:17.937Z,24.58
2018-03-15T10:43:45.522Z,24.51
2018-03-15T10:46:13.173Z,24.74
2018-03-15T10:48:40.899Z,25.88
2018-03-15T10:51:08.598Z,26.16
2018-03-15T10:53:36.206Z,26.20
2018-03-15T10:56:03.840Z,26.90
2018-03-15T10:58:31.431Z,26.82
2018-03-15T11:01:04.673Z,25.90
2018-03-15T11:03:37.865Z,26.72
2018-03-15T11:06:10.558Z,26.27
2018-03-15T11:08:38.549Z,25.96
2018-03-15T11:11:06.283Z,25.12
2018-03-15T11:13:33.933Z,25.79
2018-03-15T11:16:01.574Z,25.12
2018-03-15T11:18:29.158Z,24.77
2018-03-15T11:20:56.793Z,23.60
2018-03-15T11:23:24.456Z,23.90
2018-03-15T11:25:52.240Z,24.51
2018-03-15T11:28:19.819Z,24.72
2018-03-15T11:30:47.431Z,25.73
2018-03-15T11:33:15.035Z,26.20
2018-03-15T11:35:42.647Z,26.76
2018-03-15T11:38:10.289Z,27.23
2018-03-15T11:40:37.903Z,27.86
2018-03-15T11:43:05.507Z,28.02
2018-03-15T11:45:33.134Z,26.93
2018-03-15T11:48:00.808Z,26.69
2018-03-15T11:50:28.427Z,26.71
2018-03-15T11:52:56.101Z,27.02
2018-03-15T11:55:23.775Z,25.52
2018-03-15T11:57:51.386Z,23.77
2018-03-15T12:00:19.237Z,23.58
2018-03-15T12:02:46.839Z,24.09
2018-03-15T12:05:14.448Z,25.30
2018-03-15T12:07:42.106Z,23.95
2018-03-15T12:10:09.706Z,24.52
2018-03-15T12:12:37.424Z,23.79
2018-03-15T12:15:05.273Z,22.06
2018-03-15T12:17:32.952Z,21.71
2018-03-15T12:20:00.521Z,21.99
2018-03-15T12:22:28.113Z,23.58
2018-03-15T12:24:55.690Z,24.37
2018-03-15T12:27:23.394Z,24.24
2018-03-15T12:29:51.003Z,22.75
2018-03-15T12:32:18.726Z,20.86
2018-03-15T12:34:46.386Z,20.70
2018-03-15T12:37:13.976Z,20.46
2018-03-15T12:39:41.546Z,20.49
2018-03-15T12:42:09.359Z,20.30
2018-03-15T12:44:37.006Z,20.04
2018-03-15T12:47:04.577Z,19.48
2018-03-15T12:49:32.183Z,19.21
2018-03-15T12:51:59.800Z,19.36
2018-03-15T12:54:27.474Z,19.39
2018-03-15T12:56:55.133Z,19.36
2018-03-15T12:59:22.717Z,19.35
2018-03-15T13:01:50.348Z,19.51
2018-03-15T13:04:18.114Z,19.66
2018-03-15T13:06:45.796Z,19.82
2018-03-15T13:09:13.760Z,20.45
2018-03-15T13:11:41.399Z,21.78
2018-03-15T13:14:08.965Z,22.96
2018-03-15T13:16:37.064Z,25.30
2018-03-15T13:19:04.666Z,27.59
2018-03-15T13:21:32.231Z,27.03
2018-03-15T13:23:59.813Z,25.66
2018-03-15T13:26:30.735Z,25.28
2018-03-15T13:28:58.387Z,25.65
2018-03-15T13:31:26.101Z,25.01
2018-03-15T13:33:53.715Z,24.59
2018-03-15T13:36:21.280Z,24.33
2018-03-15T13:38:48.854Z,23.41
2018-03-15T13:41:16.531Z,22.46
2018-03-15T13:43:44.111Z,21.58
2018-03-15T13:46:11.870Z,21.26
2018-03-15T13:48:39.468Z,20.94
2018-03-15T13:51:07.050Z,20.54
2018-03-15T13:53:34.650Z,20.20
2018-03-15T13:56:02.267Z,19.98
2018-03-15T13:58:30.056Z,19.96
2018-03-15T14:00:57.616Z,19.68
2018-03-15T14:03:25.218Z,19.59
2018-03-15T14:05:52.837Z,19.60
2018-03-15T14:08:20.400Z,19.35
2018-03-15T14:10:49.723Z,19.36
2018-03-15T14:13:17.469Z,19.18
2018-03-15T14:15:47.543Z,18.99
2018-03-15T14:18:15.262Z,18.95
2018-03-15T14:20:42.932Z,18.97
2018-03-15T14:23:10.582Z,19.09
2018-03-15T14:25:38.150Z,19.23
2018-03-15T14:28:05.774Z,19.39
2018-03-15T14:30:33.681Z,19.15
2018-03-15T14:33:01.350Z,19.17
2018-03-15T14:35:29.006Z,18.76
2018-03-15T14:37:56.576Z,18.61
2018-03-15T14:40:24.361Z,18.48
2018-03-15T14:42:52.096Z,18.23
2018-03-15T14:45:19.851Z,17.80
2018-03-15T14:47:47.660Z,17.75
2018-03-15T14:50:15.285Z,17.62
2018-03-15T14:52:42.875Z,17.50
2018-03-15T14:55:10.466Z,17.43
2018-03-15T14:57:38.066Z,17.22
2018-03-15T15:00:05.821Z,17.18
2018-03-15T15:02:33.404Z,17.26
2018-03-15T15:05:01.023Z,17.30
2018-03-15T15:07:28.598Z,17.42
2018-03-15T15:09:56.172Z,17.53
2018-03-15T15:12:23.784Z,17.59
2018-03-15T15:14:51.343Z,17.69
2018-03-15T15:17:18.931Z,17.82
2018-03-15T15:19:46.536Z,18.04
2018-03-15T15:22:14.284Z,18.27
2018-03-15T15:24:41.938Z,18.43
2018-03-15T15:27:09.605Z,18.35
2018-03-15T15:29:37.266Z,18.45
2018-03-15T15:32:04.834Z,18.39
2018-03-15T15:34:32.440Z,18.34
2018-03-15T15:37:00.049Z,18.22
2018-03-15T15:39:27.629Z,18.15
2018-03-15T15:41:55.447Z,18.00
2018-03-15T15:44:23.004Z,17.78
2018-03-15T15:46:50.569Z,17.51
2018-03-15T15:49:18.188Z,17.27
2018-03-15T15:51:45.820Z,17.09
2018-03-15T15:54:13.463Z,16.82
2018-03-15T15:56:41.089Z,16.63
2018-03-15T15:59:08.787Z,16.53
2018-03-15T16:01:36.468Z,16.40
2018-03-15T16:04:04.323Z,16.20
2018-03-15T16:06:31.905Z,15.98
2018-03-15T16:08:59.515Z,15.86
2018-03-15T16:11:27.128Z,15.68
2018-03-15T16:13:55.166Z,15.50
2018-03-15T16:16:22.852Z,15.33
2018-03-15T16:18:50.482Z,15.22
2018-03-15T16:21:18.074Z,15.05
2018-03-15T16:23:45.889Z,14.98
2018-03-15T16:26:13.692Z,14.85
2018-03-15T16:28:41.390Z,14.71
2018-03-15T16:31:08.978Z,14.61
2018-03-15T16:33:36.694Z,14.53
2018-03-15T16:36:04.279Z,14.44
2018-03-15T16:38:31.852Z,14.35
2018-03-15T16:40:59.862Z,14.20
2018-03-15T16:43:27.749Z,14.10
2018-03-15T16:45:55.307Z,14.01
2018-03-15T16:48:23.077Z,13.86
2018-03-15T16:50:50.738Z,13.67
2018-03-15T16:53:18.343Z,13.66
2018-03-15T16:55:45.962Z,13.60
2018-03-15T16:58:13.571Z,13.43
2018-03-15T17:00:41.181Z,13.32
2018-03-15T17:03:08.832Z,13.16
2018-03-15T17:05:36.413Z,13.05
2018-03-15T17:08:04.158Z,12.87
2018-03-15T17:10:31.832Z,12.71
2018-03-15T17:12:59.473Z,12.58
2018-03-15T17:15:27.058Z,12.47
2018-03-15T17:17:54.657Z,12.42
2018-03-15T17:20:22.274Z,12.30
2018-03-15T17:22:49.918Z,12.20
2018-03-15T17:25:17.520Z,12.16
2018-03-15T17:27:45.242Z,12.17
2018-03-15T17:30:12.827Z,12.14
2018-03-15T17:32:40.492Z,12.15
2018-03-15T17:35:08.076Z,12.20
2018-03-15T17:37:35.659Z,12.18
2018-03-15T17:40:03.348Z,12.26
2018-03-15T17:42:30.931Z,12.21
2018-03-15T17:44:58.516Z,12.16
2018-03-15T17:47:26.151Z,12.11
2018-03-15T17:49:53.731Z,12.09
2018-03-15T17:52:21.308Z,12.01
2018-03-15T17:54:49.120Z,12.02
2018-03-15T17:59:43.642Z,11.84
2018-03-15T18:02:11.286Z,11.95
2018-03-15T18:04:39.050Z,11.87
2018-03-15T18:07:06.733Z,11.83
2018-03-15T18:09:34.350Z,11.74
2018-03-15T18:12:01.935Z,11.72
2018-03-15T18:14:29.514Z,11.72
2018-03-15T18:16:57.129Z,11.58
2018-03-15T18:19:24.696Z,11.58
2018-03-15T18:21:52.486Z,11.56
2018-03-15T18:24:20.132Z,11.43
2018-03-15T18:26:47.722Z,11.26
2018-03-15T18:29:15.356Z,11.18
2018-03-15T18:31:43.097Z,11.14
2018-03-15T18:34:10.798Z,11.14
2018-03-15T18:36:38.388Z,11.05
2018-03-15T18:39:06.027Z,10.93
2018-03-15T18:41:33.611Z,10.81
2018-03-15T18:44:01.209Z,10.74
2018-03-15T18:46:28.897Z,10.64
2018-03-15T18:48:56.473Z,10.58
2018-03-15T18:51:24.409Z,10.52
2018-03-15T18:53:52.306Z,10.55
2018-03-15T18:56:19.974Z,10.47
2018-03-15T18:58:47.718Z,10.46
2018-03-15T19:01:15.508Z,10.49
2018-03-15T19:03:43.075Z,10.51
2018-03-15T19:06:10.814Z,10.41
2018-03-15T19:08:38.431Z,10.39
2018-03-15T19:11:06.048Z,10.28
2018-03-15T19:13:33.620Z,10.30
2018-03-15T19:16:01.232Z,10.36
2018-03-15T19:18:28.809Z,10.32
2018-03-15T19:20:56.376Z,10.34
2018-03-15T19:23:23.973Z,10.33
2018-03-15T19:25:51.561Z,10.36
2018-03-15T19:28:19.172Z,10.36
2018-03-15T19:30:46.811Z,10.33
2018-03-15T19:33:14.505Z,10.36
2018-03-15T19:35:42.151Z,10.36
2018-03-15T19:38:09.767Z,10.27
2018-03-15T19:40:37.484Z,10.14
2018-03-15T19:43:05.130Z,9.99
2018-03-15T19:45:32.733Z,9.81
2018-03-15T19:48:00.303Z,9.79
2018-03-15T19:50:27.879Z,9.72
2018-03-15T19:52:55.529Z,9.64
2018-03-15T19:55:23.257Z,9.57
2018-03-15T19:57:50.826Z,9.45
2018-03-15T20:00:18.530Z,9.35
2018-03-15T20:02:46.137Z,9.26
2018-03-15T20:05:13.699Z,9.23
2018-03-15T20:07:41.296Z,9.15
2018-03-15T20:10:08.861Z,9.06
2018-03-15T20:12:36.428Z,9.05
2018-03-15T20:15:04.043Z,9.13
2018-03-15T20:17:31.608Z,9.12
2018-03-15T20:19:59.172Z,9.13
2018-03-15T20:22:32.436Z,9.12
2018-03-15T20:25:00.006Z,9.13
2018-03-15T20:27:33.307Z,9.13
2018-03-15T20:30:00.886Z,9.10
2018-03-15T20:32:34.034Z,9.07
2018-03-15T20:35:01.607Z,9.00
2018-03-15T20:37:29.203Z,8.90
2018-03-15T20:40:02.251Z,8.90
2018-03-15T20:42:29.816Z,8.79
2018-03-15T20:44:57.396Z,8.79
2018-03-15T20:47:30.609Z,8.72
2018-03-15T20:49:58.184Z,8.73
2018-03-15T20:52:25.760Z,8.79
2018-03-15T20:54:53.361Z,8.72
2018-03-15T20:57:20.940Z,8.61
2018-03-15T20:59:48.679Z,8.53
2018-03-15T21:02:16.268Z,8.33
2018-03-15T21:04:43.831Z,8.33
2018-03-15T21:07:11.395Z,8.20
2018-03-15T21:09:39.000Z,8.16
2018-03-15T21:12:06.563Z,8.06
2018-03-15T21:14:34.241Z,7.93
2018-03-15T21:17:01.818Z,7.84
2018-03-15T21:19:29.372Z,7.68
2018-03-15T21:21:57.222Z,7.49
2018-03-15T21:24:24.820Z,7.40
2018-03-15T21:26:52.475Z,7.38
2018-03-15T21:29:20.025Z,7.29
2018-03-15T21:31:47.630Z,7.17
2018-03-15T21:34:15.187Z,7.17
2018-03-15T21:36:42.762Z,7.10
2018-03-15T21:39:10.366Z,7.02
2018-03-15T21:41:37.931Z,7.09
2018-03-15T21:44:05.499Z,7.07
2018-03-15T21:46:33.108Z,7.00
2018-03-15T21:49:00.828Z,6.87
2018-03-15T21:51:28.398Z,6.83
2018-03-15T21:53:56.008Z,6.76
2018-03-15T21:56:23.680Z,6.75
2018-03-15T21:58:51.244Z,6.72
2018-03-15T22:01:18.856Z,6.68
2018-03-15T22:03:46.932Z,6.61
2018-03-15T22:06:14.546Z,6.64
2018-03-15T22:08:42.213Z,6.58
2018-03-15T22:11:09.804Z,6.52
2018-03-15T22:13:37.386Z,6.49
2018-03-15T22:16:05.014Z,6.45
2018-03-15T22:18:32.657Z,6.41
2018-03-15T22:21:00.217Z,6.36
2018-03-15T22:23:27.827Z,6.36
2018-03-15T22:25:55.417Z,6.37
2018-03-15T22:28:22.981Z,6.40
2018-03-15T22:30:50.590Z,6.37
2018-03-15T22:33:18.197Z,6.38
2018-03-15T22:35:45.853Z,6.35
2018-03-15T22:38:13.478Z,6.33
2018-03-15T22:40:41.032Z,6.36
2018-03-15T22:43:08.595Z,6.39
2018-03-15T22:45:36.198Z,6.31
2018-03-15T22:48:03.768Z,6.23
2018-03-15T22:50:31.346Z,6.18
2018-03-15T22:52:58.953Z,6.11
2018-03-15T22:55:26.554Z,5.99
2018-03-15T22:57:54.216Z,5.94
2018-03-15T23:00:21.828Z,5.77
2018-03-15T23:02:49.435Z,5.82
2018-03-15T23:05:17.280Z,5.79
2018-03-15T23:07:44.884Z,5.73
2018-03-15T23:10:12.442Z,5.68
2018-03-15T23:12:40.036Z,5.65
2018-03-15T23:15:07.656Z,5.60
2018-03-15T23:17:35.367Z,5.56
2018-03-15T23:20:02.934Z,5.44
2018-03-15T23:22:30.630Z,5.40
2018-03-15T23:24:58.214Z,5.45
2018-03-15T23:27:25.775Z,5.43
2018-03-15T23:29:53.371Z,5.41
2018-03-15T23:32:20.936Z,5.45
2018-03-15T23:34:48.523Z,5.54
2018-03-15T23:37:16.150Z,5.50
2018-03-15T23:39:43.719Z,5.43
2018-03-15T23:42:11.284Z,5.46
2018-03-15T23:44:38.889Z,5.37
2018-03-15T23:47:06.483Z,5.32
2018-03-15T23:49:34.060Z,5.19
2018-03-15T23:52:01.756Z,5.27
2018-03-15T23:54:29.418Z,5.20
2018-03-15T23:56:56.997Z,5.11
2018-03-15T23:59:24.761Z,5.07
